X  Close Metar Aviation Weather Data        LGTS Thessaloniki Macedonia International
Temperature
15°C Temperature
7°C Dewpoint
59% Humidity



Wind
9 KM/H
6 MPH
3 M/S
5 KTS



110°
ESE
Current Conditions

Mostly Clear Mostly Clear
Pressure 1020 (hPa) - 30.12 (inHg)
Visibility 6 (mile) - 10 (km)
Airport
Airport-code LGTS

Location: Thessaloniki Macedonia International
Distance: 85 (km)

Metar:
METAR LGTS 142350Z 11005KT CAVOK 15/07 Q1020 NOSIG

Time: 15-04-2024 02:50 EEST